sensor_id;sensor_type;location;lat;lon;timestamp;P1;durP1;ratioP1;P2;durP2;ratioP2
23617;SDS011;18207;32.078;34.818;2023-05-02T00:00:12;1.45;;;1.35;;
23617;SDS011;18207;32.078;34.818;2023-05-02T00:02:44;1.40;;;1.30;;
23617;SDS011;18207;32.078;34.818;2023-05-02T00:05:14;1.30;;;1.20;;
23617;SDS011;18207;32.078;34.818;2023-05-02T00:07:44;1.45;;;1.35;;
23617;SDS011;18207;32.078;34.818;2023-05-02T00:10:17;1.52;;;1.42;;
23617;SDS011;18207;32.078;34.818;2023-05-02T00:12:48;1.50;;;1.40;;
23617;SDS011;18207;32.078;34.818;2023-05-02T00:15:19;1.20;;;1.20;;
23617;SDS011;18207;32.078;34.818;2023-05-02T00:17:48;1.58;;;1.38;;
23617;SDS011;18207;32.078;34.818;2023-05-02T00:20:19;1.35;;;1.35;;
23617;SDS011;18207;32.078;34.818;2023-05-02T00:22:49;1.55;;;1.42;;
23617;SDS011;18207;32.078;34.818;2023-05-02T00:25:21;1.30;;;1.30;;
23617;SDS011;18207;32.078;34.818;2023-05-02T00:27:51;1.30;;;1.23;;
23617;SDS011;18207;32.078;34.818;2023-05-02T00:30:20;1.55;;;1.42;;
23617;SDS011;18207;32.078;34.818;2023-05-02T00:32:51;1.60;;;1.50;;
23617;SDS011;18207;32.078;34.818;2023-05-02T00:35:21;1.73;;;1.30;;
23617;SDS011;18207;32.078;34.818;2023-05-02T00:37:51;1.20;;;1.20;;
23617;SDS011;18207;32.078;34.818;2023-05-02T00:40:23;1.52;;;1.42;;
23617;SDS011;18207;32.078;34.818;2023-05-02T00:42:54;1.63;;;1.52;;
23617;SDS011;18207;32.078;34.818;2023-05-02T00:45:25;1.50;;;1.40;;
23617;SDS011;18207;32.078;34.818;2023-05-02T00:47:55;1.95;;;1.70;;
23617;SDS011;18207;32.078;34.818;2023-05-02T00:50:26;1.48;;;1.40;;
23617;SDS011;18207;32.078;34.818;2023-05-02T00:52:58;2.33;;;1.60;;
23617;SDS011;18207;32.078;34.818;2023-05-02T00:55:33;1.58;;;1.48;;
23617;SDS011;18207;32.078;34.818;2023-05-02T00:58:04;1.65;;;1.55;;
23617;SDS011;18207;32.078;34.818;2023-05-02T01:00:42;2.05;;;1.67;;
23617;SDS011;18207;32.078;34.818;2023-05-02T01:03:34;1.58;;;1.48;;
23617;SDS011;18207;32.078;34.818;2023-05-02T01:06:18;1.73;;;1.60;;
23617;SDS011;18207;32.078;34.818;2023-05-02T01:09:21;2.38;;;1.70;;
23617;SDS011;18207;32.078;34.818;2023-05-02T01:12:05;2.72;;;1.92;;
23617;SDS011;18207;32.078;34.818;2023-05-02T01:14:52;2.33;;;1.95;;
23617;SDS011;18207;32.078;34.818;2023-05-02T01:17:26;2.33;;;2.13;;
23617;SDS011;18207;32.078;34.818;2023-05-02T01:20:02;2.40;;;2.20;;
23617;SDS011;18207;32.078;34.818;2023-05-02T01:22:37;2.33;;;2.10;;
23617;SDS011;18207;32.078;34.818;2023-05-02T01:25:13;1.92;;;1.77;;
23617;SDS011;18207;32.078;34.818;2023-05-02T01:28:04;2.08;;;1.92;;
23617;SDS011;18207;32.078;34.818;2023-05-02T01:30:51;2.60;;;2.15;;
23617;SDS011;18207;32.078;34.818;2023-05-02T01:33:24;2.58;;;2.38;;
23617;SDS011;18207;32.078;34.818;2023-05-02T01:35:56;2.50;;;2.30;;
23617;SDS011;18207;32.078;34.818;2023-05-02T01:38:28;3.47;;;2.40;;
23617;SDS011;18207;32.078;34.818;2023-05-02T01:41:02;3.15;;;2.83;;
23617;SDS011;18207;32.078;34.818;2023-05-02T01:43:34;3.53;;;2.55;;
23617;SDS011;18207;32.078;34.818;2023-05-02T01:46:10;2.97;;;2.60;;
23617;SDS011;18207;32.078;34.818;2023-05-02T01:48:43;3.40;;;2.65;;
23617;SDS011;18207;32.078;34.818;2023-05-02T01:51:16;3.65;;;3.00;;
23617;SDS011;18207;32.078;34.818;2023-05-02T01:53:51;3.53;;;3.20;;
23617;SDS011;18207;32.078;34.818;2023-05-02T01:56:22;4.18;;;2.92;;
23617;SDS011;18207;32.078;34.818;2023-05-02T01:58:54;3.38;;;3.08;;
23617;SDS011;18207;32.078;34.818;2023-05-02T02:01:29;3.17;;;2.88;;
23617;SDS011;18207;32.078;34.818;2023-05-02T02:04:00;3.17;;;2.88;;
23617;SDS011;18207;32.078;34.818;2023-05-02T02:06:34;3.17;;;2.88;;
23617;SDS011;18207;32.078;34.818;2023-05-02T02:09:05;4.18;;;3.25;;
23617;SDS011;18207;32.078;34.818;2023-05-02T02:11:43;2.95;;;2.67;;
23617;SDS011;18207;32.078;34.818;2023-05-02T02:14:21;4.70;;;2.90;;
23617;SDS011;18207;32.078;34.818;2023-05-02T02:16:58;3.22;;;2.92;;
23617;SDS011;18207;32.078;34.818;2023-05-02T02:19:34;3.75;;;2.95;;
23617;SDS011;18207;32.078;34.818;2023-05-02T02:22:08;4.15;;;2.92;;
23617;SDS011;18207;32.078;34.818;2023-05-02T02:24:42;3.42;;;2.78;;
23617;SDS011;18207;32.078;34.818;2023-05-02T02:27:17;3.40;;;2.90;;
23617;SDS011;18207;32.078;34.818;2023-05-02T02:29:48;3.78;;;3.22;;
23617;SDS011;18207;32.078;34.818;2023-05-02T02:32:20;3.90;;;3.00;;
23617;SDS011;18207;32.078;34.818;2023-05-02T02:34:50;3.38;;;3.00;;
23617;SDS011;18207;32.078;34.818;2023-05-02T02:37:22;4.03;;;3.15;;
23617;SDS011;18207;32.078;34.818;2023-05-02T02:39:59;3.88;;;2.70;;
23617;SDS011;18207;32.078;34.818;2023-05-02T02:42:42;3.35;;;2.83;;
23617;SDS011;18207;32.078;34.818;2023-05-02T02:45:25;2.90;;;2.70;;
23617;SDS011;18207;32.078;34.818;2023-05-02T02:48:10;2.83;;;2.60;;
23617;SDS011;18207;32.078;34.818;2023-05-02T02:50:52;2.70;;;2.47;;
23617;SDS011;18207;32.078;34.818;2023-05-02T02:53:43;2.50;;;2.30;;
23617;SDS011;18207;32.078;34.818;2023-05-02T02:56:26;4.65;;;2.50;;
23617;SDS011;18207;32.078;34.818;2023-05-02T02:59:09;2.97;;;2.33;;
23617;SDS011;18207;32.078;34.818;2023-05-02T03:01:47;2.83;;;2.50;;
23617;SDS011;18207;32.078;34.818;2023-05-02T03:04:37;2.85;;;2.60;;
23617;SDS011;18207;32.078;34.818;2023-05-02T03:07:11;2.92;;;2.35;;
23617;SDS011;18207;32.078;34.818;2023-05-02T03:09:42;2.65;;;2.45;;
23617;SDS011;18207;32.078;34.818;2023-05-02T03:12:15;2.58;;;2.38;;
23617;SDS011;18207;32.078;34.818;2023-05-02T03:14:45;3.63;;;2.53;;
23617;SDS011;18207;32.078;34.818;2023-05-02T03:17:15;2.97;;;2.60;;
23617;SDS011;18207;32.078;34.818;2023-05-02T03:19:48;2.60;;;2.35;;
23617;SDS011;18207;32.078;34.818;2023-05-02T03:22:18;2.38;;;2.17;;
23617;SDS011;18207;32.078;34.818;2023-05-02T03:24:48;4.72;;;2.70;;
23617;SDS011;18207;32.078;34.818;2023-05-02T03:27:18;3.28;;;2.55;;
23617;SDS011;18207;32.078;34.818;2023-05-02T03:29:48;2.50;;;2.22;;
23617;SDS011;18207;32.078;34.818;2023-05-02T03:32:18;4.05;;;2.55;;
23617;SDS011;18207;32.078;34.818;2023-05-02T03:34:50;2.88;;;2.50;;
23617;SDS011;18207;32.078;34.818;2023-05-02T03:37:24;2.83;;;2.42;;
23617;SDS011;18207;32.078;34.818;2023-05-02T03:39:55;3.67;;;2.28;;
23617;SDS011;18207;32.078;34.818;2023-05-02T03:42:25;2.72;;;2.38;;
23617;SDS011;18207;32.078;34.818;2023-05-02T03:44:56;2.55;;;2.30;;
23617;SDS011;18207;32.078;34.818;2023-05-02T03:47:26;2.75;;;2.20;;
23617;SDS011;18207;32.078;34.818;2023-05-02T03:49:59;2.90;;;2.60;;
23617;SDS011;18207;32.078;34.818;2023-05-02T03:52:29;2.55;;;2.33;;
23617;SDS011;18207;32.078;34.818;2023-05-02T03:55:00;2.50;;;2.30;;
23617;SDS011;18207;32.078;34.818;2023-05-02T03:57:32;3.28;;;2.45;;
23617;SDS011;18207;32.078;34.818;2023-05-02T04:00:01;2.65;;;2.33;;
23617;SDS011;18207;32.078;34.818;2023-05-02T04:02:33;3.08;;;2.80;;
23617;SDS011;18207;32.078;34.818;2023-05-02T04:05:06;3.08;;;2.47;;
23617;SDS011;18207;32.078;34.818;2023-05-02T04:07:36;2.88;;;2.67;;
23617;SDS011;18207;32.078;34.818;2023-05-02T04:10:07;2.88;;;2.67;;
23617;SDS011;18207;32.078;34.818;2023-05-02T04:12:42;3.10;;;2.50;;
23617;SDS011;18207;32.078;34.818;2023-05-02T04:15:12;2.72;;;2.53;;
23617;SDS011;18207;32.078;34.818;2023-05-02T04:17:43;2.88;;;2.63;;
23617;SDS011;18207;32.078;34.818;2023-05-02T04:20:16;2.30;;;2.15;;
23617;SDS011;18207;32.078;34.818;2023-05-02T04:22:46;3.10;;;2.35;;
23617;SDS011;18207;32.078;34.818;2023-05-02T04:25:16;2.55;;;2.30;;
23617;SDS011;18207;32.078;34.818;2023-05-02T04:27:47;2.80;;;2.60;;
23617;SDS011;18207;32.078;34.818;2023-05-02T04:30:17;2.50;;;2.30;;
23617;SDS011;18207;32.078;34.818;2023-05-02T04:32:48;3.08;;;2.55;;
23617;SDS011;18207;32.078;34.818;2023-05-02T04:35:21;2.70;;;2.25;;
23617;SDS011;18207;32.078;34.818;2023-05-02T04:37:52;2.60;;;2.40;;
23617;SDS011;18207;32.078;34.818;2023-05-02T04:40:23;2.92;;;2.70;;
23617;SDS011;18207;32.078;34.818;2023-05-02T04:42:52;3.55;;;2.75;;
23617;SDS011;18207;32.078;34.818;2023-05-02T04:45:23;2.67;;;2.47;;
23617;SDS011;18207;32.078;34.818;2023-05-02T04:47:54;3.60;;;2.90;;
23617;SDS011;18207;32.078;34.818;2023-05-02T04:50:26;4.75;;;2.95;;
23617;SDS011;18207;32.078;34.818;2023-05-02T04:52:58;3.38;;;3.05;;
23617;SDS011;18207;32.078;34.818;2023-05-02T04:55:28;3.42;;;3.10;;
23617;SDS011;18207;32.078;34.818;2023-05-02T04:57:58;3.28;;;3.00;;
23617;SDS011;18207;32.078;34.818;2023-05-02T05:00:30;2.85;;;2.65;;
23617;SDS011;18207;32.078;34.818;2023-05-02T05:03:00;2.80;;;2.60;;
23617;SDS011;18207;32.078;34.818;2023-05-02T05:05:32;2.70;;;2.50;;
23617;SDS011;18207;32.078;34.818;2023-05-02T05:08:03;2.42;;;2.22;;
23617;SDS011;18207;32.078;34.818;2023-05-02T05:10:33;2.40;;;2.20;;
23617;SDS011;18207;32.078;34.818;2023-05-02T05:13:04;2.38;;;2.08;;
23617;SDS011;18207;32.078;34.818;2023-05-02T05:15:34;2.58;;;2.33;;
23617;SDS011;18207;32.078;34.818;2023-05-02T05:18:05;2.13;;;2.00;;
23617;SDS011;18207;32.078;34.818;2023-05-02T05:20:36;2.22;;;2.03;;
23617;SDS011;18207;32.078;34.818;2023-05-02T05:23:07;1.92;;;1.80;;
23617;SDS011;18207;32.078;34.818;2023-05-02T05:25:37;2.15;;;1.98;;
23617;SDS011;18207;32.078;34.818;2023-05-02T05:28:11;2.08;;;1.98;;
23617;SDS011;18207;32.078;34.818;2023-05-02T05:30:41;1.90;;;1.80;;
23617;SDS011;18207;32.078;34.818;2023-05-02T05:33:11;2.00;;;1.90;;
23617;SDS011;18207;32.078;34.818;2023-05-02T05:35:43;3.42;;;2.13;;
23617;SDS011;18207;32.078;34.818;2023-05-02T05:38:13;2.25;;;2.08;;
23617;SDS011;18207;32.078;34.818;2023-05-02T05:40:43;2.40;;;2.20;;
23617;SDS011;18207;32.078;34.818;2023-05-02T05:43:17;2.08;;;1.98;;
23617;SDS011;18207;32.078;34.818;2023-05-02T05:45:50;2.50;;;2.00;;
23617;SDS011;18207;32.078;34.818;2023-05-02T05:48:20;2.42;;;2.13;;
23617;SDS011;18207;32.078;34.818;2023-05-02T05:50:53;2.03;;;1.92;;
23617;SDS011;18207;32.078;34.818;2023-05-02T05:53:23;1.95;;;1.83;;
23617;SDS011;18207;32.078;34.818;2023-05-02T05:55:53;1.80;;;1.70;;
23617;SDS011;18207;32.078;34.818;2023-05-02T05:58:24;1.85;;;1.75;;
23617;SDS011;18207;32.078;34.818;2023-05-02T06:00:54;1.73;;;1.63;;
23617;SDS011;18207;32.078;34.818;2023-05-02T06:03:25;2.50;;;1.85;;
23617;SDS011;18207;32.078;34.818;2023-05-02T06:05:57;1.80;;;1.70;;
23617;SDS011;18207;32.078;34.818;2023-05-02T06:08:27;1.67;;;1.58;;
23617;SDS011;18207;32.078;34.818;2023-05-02T06:10:57;2.00;;;1.90;;
23617;SDS011;18207;32.078;34.818;2023-05-02T06:13:27;1.77;;;1.67;;
23617;SDS011;18207;32.078;34.818;2023-05-02T06:15:59;1.83;;;1.73;;
23617;SDS011;18207;32.078;34.818;2023-05-02T06:18:30;1.52;;;1.50;;
23617;SDS011;18207;32.078;34.818;2023-05-02T06:23:47;1.65;;;1.58;;
23617;SDS011;18207;32.078;34.818;2023-05-02T06:26:17;2.25;;;2.00;;
23617;SDS011;18207;32.078;34.818;2023-05-02T06:28:48;1.98;;;1.73;;
23617;SDS011;18207;32.078;34.818;2023-05-02T06:31:18;1.92;;;1.83;;
23617;SDS011;18207;32.078;34.818;2023-05-02T06:33:48;1.92;;;1.83;;
23617;SDS011;18207;32.078;34.818;2023-05-02T06:36:20;1.77;;;1.67;;
23617;SDS011;18207;32.078;34.818;2023-05-02T06:38:50;1.85;;;1.75;;
23617;SDS011;18207;32.078;34.818;2023-05-02T06:41:21;1.90;;;1.80;;
23617;SDS011;18207;32.078;34.818;2023-05-02T06:43:50;1.90;;;1.80;;
23617;SDS011;18207;32.078;34.818;2023-05-02T06:46:21;2.00;;;1.90;;
23617;SDS011;18207;32.078;34.818;2023-05-02T06:48:52;2.45;;;1.73;;
23617;SDS011;18207;32.078;34.818;2023-05-02T06:51:24;2.10;;;1.90;;
23617;SDS011;18207;32.078;34.818;2023-05-02T06:53:54;1.95;;;1.85;;
23617;SDS011;18207;32.078;34.818;2023-05-02T06:56:24;1.92;;;1.83;;
23617;SDS011;18207;32.078;34.818;2023-05-02T06:58:55;1.88;;;1.70;;
23617;SDS011;18207;32.078;34.818;2023-05-02T07:01:25;1.63;;;1.52;;
23617;SDS011;18207;32.078;34.818;2023-05-02T07:03:55;2.00;;;1.80;;
23617;SDS011;18207;32.078;34.818;2023-05-02T07:06:28;1.75;;;1.65;;
23617;SDS011;18207;32.078;34.818;2023-05-02T07:08:59;1.88;;;1.77;;
23617;SDS011;18207;32.078;34.818;2023-05-02T07:11:29;2.08;;;1.98;;
23617;SDS011;18207;32.078;34.818;2023-05-02T07:13:59;2.05;;;1.95;;
23617;SDS011;18207;32.078;34.818;2023-05-02T07:16:30;1.77;;;1.67;;
23617;SDS011;18207;32.078;34.818;2023-05-02T07:19:01;2.33;;;1.65;;
23617;SDS011;18207;32.078;34.818;2023-05-02T07:21:34;2.25;;;1.77;;
23617;SDS011;18207;32.078;34.818;2023-05-02T07:24:04;1.85;;;1.75;;
23617;SDS011;18207;32.078;34.818;2023-05-02T07:26:34;2.08;;;1.88;;
23617;SDS011;18207;32.078;34.818;2023-05-02T07:29:05;1.58;;;1.48;;
23617;SDS011;18207;32.078;34.818;2023-05-02T07:31:35;1.90;;;1.80;;
23617;SDS011;18207;32.078;34.818;2023-05-02T07:34:05;2.60;;;1.90;;
23617;SDS011;18207;32.078;34.818;2023-05-02T07:36:37;1.92;;;1.83;;
23617;SDS011;18207;32.078;34.818;2023-05-02T07:39:07;2.45;;;2.25;;
23617;SDS011;18207;32.078;34.818;2023-05-02T07:41:38;1.80;;;1.70;;
23617;SDS011;18207;32.078;34.818;2023-05-02T07:44:08;1.75;;;1.65;;
23617;SDS011;18207;32.078;34.818;2023-05-02T07:46:39;1.90;;;1.80;;
23617;SDS011;18207;32.078;34.818;2023-05-02T07:49:09;2.30;;;2.20;;
23617;SDS011;18207;32.078;34.818;2023-05-02T07:51:42;1.92;;;1.83;;
23617;SDS011;18207;32.078;34.818;2023-05-02T07:54:16;2.13;;;2.00;;
23617;SDS011;18207;32.078;34.818;2023-05-02T07:56:47;1.80;;;1.70;;
23617;SDS011;18207;32.078;34.818;2023-05-02T07:59:17;2.17;;;2.08;;
23617;SDS011;18207;32.078;34.818;2023-05-02T08:01:46;2.05;;;1.95;;
23617;SDS011;18207;32.078;34.818;2023-05-02T08:04:16;2.00;;;1.90;;
23617;SDS011;18207;32.078;34.818;2023-05-02T08:06:48;1.90;;;1.80;;
23617;SDS011;18207;32.078;34.818;2023-05-02T08:09:18;2.03;;;1.92;;
23617;SDS011;18207;32.078;34.818;2023-05-02T08:11:48;2.25;;;2.05;;
23617;SDS011;18207;32.078;34.818;2023-05-02T08:14:19;2.13;;;2.00;;
23617;SDS011;18207;32.078;34.818;2023-05-02T08:16:49;2.20;;;2.00;;
23617;SDS011;18207;32.078;34.818;2023-05-02T08:19:19;1.98;;;1.88;;
23617;SDS011;18207;32.078;34.818;2023-05-02T08:21:51;1.92;;;1.83;;
23617;SDS011;18207;32.078;34.818;2023-05-02T08:24:22;2.10;;;2.00;;
23617;SDS011;18207;32.078;34.818;2023-05-02T08:26:52;1.90;;;1.80;;
23617;SDS011;18207;32.078;34.818;2023-05-02T08:29:22;2.05;;;1.95;;
23617;SDS011;18207;32.078;34.818;2023-05-02T08:31:52;2.28;;;2.10;;
23617;SDS011;18207;32.078;34.818;2023-05-02T08:34:22;1.90;;;1.80;;
23617;SDS011;18207;32.078;34.818;2023-05-02T08:36:55;1.98;;;1.88;;
23617;SDS011;18207;32.078;34.818;2023-05-02T08:39:25;1.98;;;1.83;;
23617;SDS011;18207;32.078;34.818;2023-05-02T08:41:55;1.88;;;1.77;;
23617;SDS011;18207;32.078;34.818;2023-05-02T08:44:24;2.00;;;1.90;;
23617;SDS011;18207;32.078;34.818;2023-05-02T08:46:55;2.10;;;2.00;;
23617;SDS011;18207;32.078;34.818;2023-05-02T08:49:28;1.83;;;1.73;;
23617;SDS011;18207;32.078;34.818;2023-05-02T08:52:03;1.88;;;1.77;;
23617;SDS011;18207;32.078;34.818;2023-05-02T08:54:37;1.70;;;1.60;;
23617;SDS011;18207;32.078;34.818;2023-05-02T08:57:08;1.80;;;1.70;;
23617;SDS011;18207;32.078;34.818;2023-05-02T08:59:38;1.90;;;1.80;;
23617;SDS011;18207;32.078;34.818;2023-05-02T09:02:11;1.75;;;1.65;;
23617;SDS011;18207;32.078;34.818;2023-05-02T09:04:53;1.73;;;1.63;;
23617;SDS011;18207;32.078;34.818;2023-05-02T09:07:41;1.70;;;1.60;;
23617;SDS011;18207;32.078;34.818;2023-05-02T09:10:14;1.50;;;1.42;;
23617;SDS011;18207;32.078;34.818;2023-05-02T09:12:44;1.88;;;1.65;;
23617;SDS011;18207;32.078;34.818;2023-05-02T09:15:15;1.77;;;1.67;;
23617;SDS011;18207;32.078;34.818;2023-05-02T09:17:46;1.60;;;1.50;;
23617;SDS011;18207;32.078;34.818;2023-05-02T09:20:17;1.58;;;1.50;;
23617;SDS011;18207;32.078;34.818;2023-05-02T09:22:49;1.80;;;1.70;;
23617;SDS011;18207;32.078;34.818;2023-05-02T09:25:20;1.70;;;1.60;;
23617;SDS011;18207;32.078;34.818;2023-05-02T09:27:52;1.70;;;1.60;;
23617;SDS011;18207;32.078;34.818;2023-05-02T09:30:23;1.75;;;1.65;;
23617;SDS011;18207;32.078;34.818;2023-05-02T09:32:54;1.73;;;1.50;;
23617;SDS011;18207;32.078;34.818;2023-05-02T09:35:25;1.20;;;1.20;;
23617;SDS011;18207;32.078;34.818;2023-05-02T09:37:57;1.88;;;1.50;;
23617;SDS011;18207;32.078;34.818;2023-05-02T09:40:27;1.58;;;1.42;;
23617;SDS011;18207;32.078;34.818;2023-05-02T09:42:58;1.80;;;1.70;;
23617;SDS011;18207;32.078;34.818;2023-05-02T09:45:42;1.35;;;1.25;;
23617;SDS011;18207;32.078;34.818;2023-05-02T09:48:27;1.45;;;1.40;;
23617;SDS011;18207;32.078;34.818;2023-05-02T09:50:58;1.60;;;1.50;;
23617;SDS011;18207;32.078;34.818;2023-05-02T09:53:33;1.27;;;1.17;;
23617;SDS011;18207;32.078;34.818;2023-05-02T09:56:13;1.38;;;1.35;;
23617;SDS011;18207;32.078;34.818;2023-05-02T09:58:44;1.70;;;1.60;;
23617;SDS011;18207;32.078;34.818;2023-05-02T10:01:14;1.52;;;1.42;;
23617;SDS011;18207;32.078;34.818;2023-05-02T10:03:46;1.58;;;1.48;;
23617;SDS011;18207;32.078;34.818;2023-05-02T10:06:17;1.27;;;1.23;;
23617;SDS011;18207;32.078;34.818;2023-05-02T10:08:50;1.60;;;1.50;;
23617;SDS011;18207;32.078;34.818;2023-05-02T10:11:20;1.60;;;1.50;;
23617;SDS011;18207;32.078;34.818;2023-05-02T10:13:51;1.60;;;1.50;;
23617;SDS011;18207;32.078;34.818;2023-05-02T10:16:22;1.38;;;1.27;;
23617;SDS011;18207;32.078;34.818;2023-05-02T10:19:01;1.48;;;1.40;;
23617;SDS011;18207;32.078;34.818;2023-05-02T10:21:37;1.30;;;1.20;;
23617;SDS011;18207;32.078;34.818;2023-05-02T10:24:13;1.30;;;1.30;;
23617;SDS011;18207;32.078;34.818;2023-05-02T10:26:44;1.67;;;1.40;;
23617;SDS011;18207;32.078;34.818;2023-05-02T10:29:16;1.25;;;1.20;;
23617;SDS011;18207;32.078;34.818;2023-05-02T10:31:46;1.50;;;1.42;;
23617;SDS011;18207;32.078;34.818;2023-05-02T10:34:18;0.90;;;0.90;;
23617;SDS011;18207;32.078;34.818;2023-05-02T10:36:50;1.02;;;1.02;;
23617;SDS011;18207;32.078;34.818;2023-05-02T10:39:21;1.70;;;1.60;;
23617;SDS011;18207;32.078;34.818;2023-05-02T10:41:54;1.10;;;1.10;;
23617;SDS011;18207;32.078;34.818;2023-05-02T10:44:31;1.13;;;1.13;;
23617;SDS011;18207;32.078;34.818;2023-05-02T10:47:16;1.17;;;1.17;;
23617;SDS011;18207;32.078;34.818;2023-05-02T10:49:48;1.25;;;1.25;;
23617;SDS011;18207;32.078;34.818;2023-05-02T10:52:26;1.20;;;1.20;;
23617;SDS011;18207;32.078;34.818;2023-05-02T10:55:15;1.52;;;1.42;;
23617;SDS011;18207;32.078;34.818;2023-05-02T11:00:49;1.52;;;1.42;;
23617;SDS011;18207;32.078;34.818;2023-05-02T11:06:25;1.17;;;1.10;;
23617;SDS011;18207;32.078;34.818;2023-05-02T11:12:05;1.23;;;1.15;;
23617;SDS011;18207;32.078;34.818;2023-05-02T11:14:42;1.00;;;1.00;;
23617;SDS011;18207;32.078;34.818;2023-05-02T11:17:16;1.40;;;1.30;;
23617;SDS011;18207;32.078;34.818;2023-05-02T11:22:58;1.00;;;1.00;;
23617;SDS011;18207;32.078;34.818;2023-05-02T11:25:54;0.95;;;0.85;;
23617;SDS011;18207;32.078;34.818;2023-05-02T11:28:41;0.90;;;0.90;;
23617;SDS011;18207;32.078;34.818;2023-05-02T11:34:40;0.80;;;0.80;;
23617;SDS011;18207;32.078;34.818;2023-05-02T11:37:12;1.00;;;1.00;;
23617;SDS011;18207;32.078;34.818;2023-05-02T11:39:43;1.17;;;0.98;;
23617;SDS011;18207;32.078;34.818;2023-05-02T11:45:10;0.80;;;0.80;;
23617;SDS011;18207;32.078;34.818;2023-05-02T11:47:41;1.30;;;1.20;;
23617;SDS011;18207;32.078;34.818;2023-05-02T11:50:13;1.42;;;1.10;;
23617;SDS011;18207;32.078;34.818;2023-05-02T11:52:44;0.98;;;0.95;;
23617;SDS011;18207;32.078;34.818;2023-05-02T11:55:14;0.65;;;0.65;;
23617;SDS011;18207;32.078;34.818;2023-05-02T11:57:45;0.82;;;0.80;;
23617;SDS011;18207;32.078;34.818;2023-05-02T12:00:19;0.80;;;0.80;;
23617;SDS011;18207;32.078;34.818;2023-05-02T12:02:56;0.85;;;0.85;;
23617;SDS011;18207;32.078;34.818;2023-05-02T12:05:26;0.85;;;0.80;;
23617;SDS011;18207;32.078;34.818;2023-05-02T12:07:58;0.80;;;0.80;;
23617;SDS011;18207;32.078;34.818;2023-05-02T12:10:35;0.77;;;0.77;;
23617;SDS011;18207;32.078;34.818;2023-05-02T12:13:06;1.08;;;0.90;;
23617;SDS011;18207;32.078;34.818;2023-05-02T12:15:39;1.15;;;0.88;;
23617;SDS011;18207;32.078;34.818;2023-05-02T12:18:09;1.35;;;0.90;;
23617;SDS011;18207;32.078;34.818;2023-05-02T12:20:41;0.93;;;0.88;;
23617;SDS011;18207;32.078;34.818;2023-05-02T12:23:13;0.93;;;0.88;;
23617;SDS011;18207;32.078;34.818;2023-05-02T12:25:43;0.63;;;0.63;;
23617;SDS011;18207;32.078;34.818;2023-05-02T12:28:13;0.73;;;0.70;;
23617;SDS011;18207;32.078;34.818;2023-05-02T12:30:48;0.60;;;0.60;;
23617;SDS011;18207;32.078;34.818;2023-05-02T12:33:19;0.95;;;0.77;;
23617;SDS011;18207;32.078;34.818;2023-05-02T12:35:49;1.02;;;0.90;;
23617;SDS011;18207;32.078;34.818;2023-05-02T12:38:19;0.88;;;0.88;;
23617;SDS011;18207;32.078;34.818;2023-05-02T12:40:52;0.80;;;0.80;;
23617;SDS011;18207;32.078;34.818;2023-05-02T12:43:24;0.57;;;0.57;;
23617;SDS011;18207;32.078;34.818;2023-05-02T12:48:41;1.23;;;0.70;;
23617;SDS011;18207;32.078;34.818;2023-05-02T12:51:21;0.88;;;0.88;;
23617;SDS011;18207;32.078;34.818;2023-05-02T12:53:51;1.30;;;0.98;;
23617;SDS011;18207;32.078;34.818;2023-05-02T12:56:22;1.27;;;1.17;;
23617;SDS011;18207;32.078;34.818;2023-05-02T12:58:53;2.53;;;1.73;;
23617;SDS011;18207;32.078;34.818;2023-05-02T13:01:28;3.33;;;2.60;;
23617;SDS011;18207;32.078;34.818;2023-05-02T13:04:01;3.40;;;2.85;;
23617;SDS011;18207;32.078;34.818;2023-05-02T13:06:32;3.28;;;2.70;;
23617;SDS011;18207;32.078;34.818;2023-05-02T13:09:03;3.20;;;2.30;;
23617;SDS011;18207;32.078;34.818;2023-05-02T13:11:33;1.92;;;1.73;;
23617;SDS011;18207;32.078;34.818;2023-05-02T13:14:05;1.90;;;1.70;;
23617;SDS011;18207;32.078;34.818;2023-05-02T13:16:36;1.60;;;1.50;;
23617;SDS011;18207;32.078;34.818;2023-05-02T13:19:07;2.03;;;1.50;;
23617;SDS011;18207;32.078;34.818;2023-05-02T13:21:37;1.50;;;1.40;;
23617;SDS011;18207;32.078;34.818;2023-05-02T13:24:07;1.40;;;1.30;;
23617;SDS011;18207;32.078;34.818;2023-05-02T13:26:37;1.55;;;1.45;;
23617;SDS011;18207;32.078;34.818;2023-05-02T13:29:07;3.10;;;1.20;;
23617;SDS011;18207;32.078;34.818;2023-05-02T13:31:40;1.20;;;1.10;;
23617;SDS011;18207;32.078;34.818;2023-05-02T13:34:09;1.30;;;1.20;;
23617;SDS011;18207;32.078;34.818;2023-05-02T13:36:40;1.10;;;1.10;;
23617;SDS011;18207;32.078;34.818;2023-05-02T13:39:12;1.20;;;1.20;;
23617;SDS011;18207;32.078;34.818;2023-05-02T13:41:42;1.08;;;1.02;;
23617;SDS011;18207;32.078;34.818;2023-05-02T13:44:12;0.98;;;0.90;;
23617;SDS011;18207;32.078;34.818;2023-05-02T13:46:44;0.70;;;0.70;;
23617;SDS011;18207;32.078;34.818;2023-05-02T13:49:14;1.27;;;1.20;;
23617;SDS011;18207;32.078;34.818;2023-05-02T13:51:45;1.00;;;1.00;;
23617;SDS011;18207;32.078;34.818;2023-05-02T13:54:16;1.13;;;1.10;;
23617;SDS011;18207;32.078;34.818;2023-05-02T13:56:46;0.98;;;0.98;;
23617;SDS011;18207;32.078;34.818;2023-05-02T13:59:17;1.00;;;1.00;;
23617;SDS011;18207;32.078;34.818;2023-05-02T14:01:49;1.85;;;1.10;;
23617;SDS011;18207;32.078;34.818;2023-05-02T14:04:20;0.88;;;0.88;;
23617;SDS011;18207;32.078;34.818;2023-05-02T14:06:50;0.93;;;0.90;;
23617;SDS011;18207;32.078;34.818;2023-05-02T14:09:21;0.90;;;0.90;;
23617;SDS011;18207;32.078;34.818;2023-05-02T14:11:51;1.23;;;0.88;;
23617;SDS011;18207;32.078;34.818;2023-05-02T14:14:21;0.77;;;0.77;;
23617;SDS011;18207;32.078;34.818;2023-05-02T14:16:53;0.85;;;0.85;;
23617;SDS011;18207;32.078;34.818;2023-05-02T14:19:23;0.93;;;0.93;;
23617;SDS011;18207;32.078;34.818;2023-05-02T14:21:53;0.60;;;0.60;;
23617;SDS011;18207;32.078;34.818;2023-05-02T14:24:23;0.90;;;0.90;;
23617;SDS011;18207;32.078;34.818;2023-05-02T14:26:54;1.10;;;1.00;;
23617;SDS011;18207;32.078;34.818;2023-05-02T14:29:24;1.20;;;1.10;;
23617;SDS011;18207;32.078;34.818;2023-05-02T14:31:56;0.68;;;0.63;;
23617;SDS011;18207;32.078;34.818;2023-05-02T14:34:26;1.05;;;0.98;;
23617;SDS011;18207;32.078;34.818;2023-05-02T14:36:57;1.10;;;1.00;;
23617;SDS011;18207;32.078;34.818;2023-05-02T14:39:27;0.80;;;0.80;;
23617;SDS011;18207;32.078;34.818;2023-05-02T14:41:57;0.90;;;0.90;;
23617;SDS011;18207;32.078;34.818;2023-05-02T14:44:29;1.02;;;1.00;;
23617;SDS011;18207;32.078;34.818;2023-05-02T14:47:01;0.80;;;0.80;;
23617;SDS011;18207;32.078;34.818;2023-05-02T14:49:32;0.90;;;0.90;;
23617;SDS011;18207;32.078;34.818;2023-05-02T14:52:02;0.93;;;0.93;;
23617;SDS011;18207;32.078;34.818;2023-05-02T14:54:34;0.82;;;0.82;;
23617;SDS011;18207;32.078;34.818;2023-05-02T14:57:04;0.90;;;0.90;;
23617;SDS011;18207;32.078;34.818;2023-05-02T14:59:34;0.65;;;0.65;;
23617;SDS011;18207;32.078;34.818;2023-05-02T15:02:08;0.85;;;0.85;;
23617;SDS011;18207;32.078;34.818;2023-05-02T15:04:38;0.70;;;0.70;;
23617;SDS011;18207;32.078;34.818;2023-05-02T15:07:08;1.15;;;1.05;;
23617;SDS011;18207;32.078;34.818;2023-05-02T15:09:39;0.98;;;0.95;;
23617;SDS011;18207;32.078;34.818;2023-05-02T15:12:09;1.02;;;1.02;;
23617;SDS011;18207;32.078;34.818;2023-05-02T15:14:39;1.02;;;0.90;;
23617;SDS011;18207;32.078;34.818;2023-05-02T15:17:11;0.80;;;0.80;;
23617;SDS011;18207;32.078;34.818;2023-05-02T15:19:41;0.90;;;0.90;;
23617;SDS011;18207;32.078;34.818;2023-05-02T15:22:11;1.00;;;1.00;;
23617;SDS011;18207;32.078;34.818;2023-05-02T15:24:44;1.17;;;1.08;;
23617;SDS011;18207;32.078;34.818;2023-05-02T15:27:14;0.90;;;0.90;;